sensor_id;sensor_type;location;lat;lon;timestamp;pressure;altitude;pressure_sealevel;temperature;humidity
46211;BME280;52144;48.040;-1.594;2023-02-21T00:00:31;101705.38;;;6.58;98.84
46211;BME280;52144;48.040;-1.594;2023-02-21T00:03:16;101707.97;;;6.62;99.47
46211;BME280;52144;48.040;-1.594;2023-02-21T00:06:02;101700.03;;;6.62;98.89
46211;BME280;52144;48.040;-1.594;2023-02-21T00:08:48;101687.97;;;6.40;98.74
46211;BME280;52144;48.040;-1.594;2023-02-21T00:11:34;101684.56;;;6.30;99.84
46211;BME280;52144;48.040;-1.594;2023-02-21T00:14:19;101674.19;;;6.15;99.98
46211;BME280;52144;48.040;-1.594;2023-02-21T00:17:04;101675.28;;;5.95;100.00
46211;BME280;52144;48.040;-1.594;2023-02-21T00:19:50;101675.13;;;6.08;100.00
46211;BME280;52144;48.040;-1.594;2023-02-21T00:22:35;101679.63;;;6.02;99.85
46211;BME280;52144;48.040;-1.594;2023-02-21T00:25:22;101672.53;;;6.05;100.00
46211;BME280;52144;48.040;-1.594;2023-02-21T00:28:07;101670.00;;;5.92;99.59
46211;BME280;52144;48.040;-1.594;2023-02-21T00:30:53;101667.25;;;6.03;100.00
46211;BME280;52144;48.040;-1.594;2023-02-21T00:33:39;101665.66;;;5.83;98.45
46211;BME280;52144;48.040;-1.594;2023-02-21T00:36:24;101674.53;;;5.81;100.00
46211;BME280;52144;48.040;-1.594;2023-02-21T00:39:09;101667.38;;;5.92;100.00
46211;BME280;52144;48.040;-1.594;2023-02-21T00:41:56;101658.53;;;5.96;100.00
46211;BME280;52144;48.040;-1.594;2023-02-21T00:44:41;101650.56;;;5.98;100.00
46211;BME280;52144;48.040;-1.594;2023-02-21T00:47:26;101659.28;;;6.06;100.00
46211;BME280;52144;48.040;-1.594;2023-02-21T00:50:12;101651.38;;;6.05;100.00
46211;BME280;52144;48.040;-1.594;2023-02-21T00:52:57;101650.25;;;6.22;100.00
46211;BME280;52144;48.040;-1.594;2023-02-21T00:55:42;101639.63;;;6.24;99.85
46211;BME280;52144;48.040;-1.594;2023-02-21T00:58:29;101638.94;;;6.10;100.00
46211;BME280;52144;48.040;-1.594;2023-02-21T01:01:14;101638.00;;;6.15;100.00
46211;BME280;52144;48.040;-1.594;2023-02-21T01:04:00;101624.91;;;6.05;100.00
46211;BME280;52144;48.040;-1.594;2023-02-21T01:06:45;101626.59;;;6.10;100.00
46211;BME280;52144;48.040;-1.594;2023-02-21T01:09:30;101623.06;;;6.10;100.00
46211;BME280;52144;48.040;-1.594;2023-02-21T01:12:15;101628.34;;;6.13;100.00
46211;BME280;52144;48.040;-1.594;2023-02-21T01:15:02;101619.66;;;6.01;100.00
46211;BME280;52144;48.040;-1.594;2023-02-21T01:17:48;101616.13;;;6.01;100.00
46211;BME280;52144;48.040;-1.594;2023-02-21T01:20:33;101620.06;;;5.65;100.00
46211;BME280;52144;48.040;-1.594;2023-02-21T01:23:19;101618.84;;;5.92;100.00
46211;BME280;52144;48.040;-1.594;2023-02-21T01:26:04;101619.63;;;6.03;100.00
46211;BME280;52144;48.040;-1.594;2023-02-21T01:28:49;101608.97;;;6.09;100.00
46211;BME280;52144;48.040;-1.594;2023-02-21T01:31:36;101612.28;;;6.25;100.00
46211;BME280;52144;48.040;-1.594;2023-02-21T01:34:21;101607.94;;;6.21;99.66
46211;BME280;52144;48.040;-1.594;2023-02-21T01:37:07;101605.31;;;6.16;100.00
46211;BME280;52144;48.040;-1.594;2023-02-21T01:39:52;101600.84;;;6.23;100.00
46211;BME280;52144;48.040;-1.594;2023-02-21T01:42:37;101596.34;;;6.28;100.00
46211;BME280;52144;48.040;-1.594;2023-02-21T01:45:47;101612.28;;;6.25;100.00
46211;BME280;52144;48.040;-1.594;2023-02-21T01:48:35;101604.38;;;6.22;100.00
46211;BME280;52144;48.040;-1.594;2023-02-21T01:51:26;101604.56;;;6.08;99.97
46211;BME280;52144;48.040;-1.594;2023-02-21T01:54:12;101593.34;;;5.86;99.86
46211;BME280;52144;48.040;-1.594;2023-02-21T01:56:59;101589.75;;;5.96;100.00
46211;BME280;52144;48.040;-1.594;2023-02-21T01:59:46;101591.41;;;6.03;100.00
46211;BME280;52144;48.040;-1.594;2023-02-21T02:02:36;101583.44;;;6.07;100.00
46211;BME280;52144;48.040;-1.594;2023-02-21T02:05:26;101580.03;;;5.97;100.00
46211;BME280;52144;48.040;-1.594;2023-02-21T02:08:13;101575.00;;;5.72;100.00
46211;BME280;52144;48.040;-1.594;2023-02-21T02:11:03;101567.16;;;5.65;100.00
46211;BME280;52144;48.040;-1.594;2023-02-21T02:14:03;101567.44;;;5.41;100.00
46211;BME280;52144;48.040;-1.594;2023-02-21T02:16:40;101555.91;;;5.47;100.00
46211;BME280;52144;48.040;-1.594;2023-02-21T02:19:35;101560.31;;;5.45;100.00
46211;BME280;52144;48.040;-1.594;2023-02-21T02:22:34;101553.31;;;5.44;100.00
46211;BME280;52144;48.040;-1.594;2023-02-21T02:25:16;101547.19;;;5.40;100.00
46211;BME280;52144;48.040;-1.594;2023-02-21T02:28:04;101537.53;;;5.38;99.02
46211;BME280;52144;48.040;-1.594;2023-02-21T02:31:17;101547.03;;;5.54;99.46
46211;BME280;52144;48.040;-1.594;2023-02-21T02:37:03;101533.03;;;5.43;98.40
46211;BME280;52144;48.040;-1.594;2023-02-21T02:39:45;101523.59;;;5.23;98.91
46211;BME280;52144;48.040;-1.594;2023-02-21T02:42:22;101521.81;;;5.22;99.99
46211;BME280;52144;48.040;-1.594;2023-02-21T02:44:56;101522.69;;;5.23;100.00
46211;BME280;52144;48.040;-1.594;2023-02-21T02:47:30;101522.59;;;5.32;100.00
46211;BME280;52144;48.040;-1.594;2023-02-21T02:50:00;101514.72;;;5.28;99.34
46211;BME280;52144;48.040;-1.594;2023-02-21T02:52:31;101515.59;;;5.27;99.41
46211;BME280;52144;48.040;-1.594;2023-02-21T02:55:00;101517.53;;;5.12;98.06
46211;BME280;52144;48.040;-1.594;2023-02-21T02:57:29;101511.31;;;5.18;98.67
46211;BME280;52144;48.040;-1.594;2023-02-21T03:00:05;101522.81;;;5.12;99.99
46211;BME280;52144;48.040;-1.594;2023-02-21T03:02:44;101524.63;;;5.07;99.86
46211;BME280;52144;48.040;-1.594;2023-02-21T03:05:47;101524.75;;;4.95;100.00
46211;BME280;52144;48.040;-1.594;2023-02-21T03:08:26;101522.41;;;4.64;100.00
46211;BME280;52144;48.040;-1.594;2023-02-21T03:11:01;101521.09;;;5.10;100.00
46211;BME280;52144;48.040;-1.594;2023-02-21T03:13:36;101516.50;;;5.26;100.00
46211;BME280;52144;48.040;-1.594;2023-02-21T03:16:11;101520.16;;;5.12;100.00
46211;BME280;52144;48.040;-1.594;2023-02-21T03:18:42;101510.06;;;5.50;100.00
46211;BME280;52144;48.040;-1.594;2023-02-21T03:21:16;101505.72;;;5.44;100.00
46211;BME280;52144;48.040;-1.594;2023-02-21T03:23:49;101498.66;;;5.46;100.00
46211;BME280;52144;48.040;-1.594;2023-02-21T03:26:18;101493.13;;;5.65;100.00
46211;BME280;52144;48.040;-1.594;2023-02-21T03:28:46;101498.81;;;5.34;98.94
46211;BME280;52144;48.040;-1.594;2023-02-21T03:31:16;101484.75;;;5.29;100.00
46211;BME280;52144;48.040;-1.594;2023-02-21T03:33:46;101493.59;;;5.29;100.00
46211;BME280;52144;48.040;-1.594;2023-02-21T03:36:14;101490.03;;;5.29;98.91
46211;BME280;52144;48.040;-1.594;2023-02-21T03:38:42;101485.00;;;5.07;98.15
46211;BME280;52144;48.040;-1.594;2023-02-21T03:41:11;101483.09;;;5.21;99.90
46211;BME280;52144;48.040;-1.594;2023-02-21T03:43:40;101484.81;;;5.22;99.35
46211;BME280;52144;48.040;-1.594;2023-02-21T03:46:08;101482.25;;;5.18;99.17
46211;BME280;52144;48.040;-1.594;2023-02-21T03:48:36;101474.31;;;5.16;99.02
46211;BME280;52144;48.040;-1.594;2023-02-21T03:51:04;101478.75;;;5.14;99.18
46211;BME280;52144;48.040;-1.594;2023-02-21T03:53:32;101477.94;;;5.09;97.38
46211;BME280;52144;48.040;-1.594;2023-02-21T03:56:00;101478.56;;;5.31;99.77
46211;BME280;52144;48.040;-1.594;2023-02-21T03:58:29;101474.09;;;5.38;99.25
46211;BME280;52144;48.040;-1.594;2023-02-21T04:00:57;101472.56;;;5.17;96.94
46211;BME280;52144;48.040;-1.594;2023-02-21T04:03:24;101467.25;;;5.21;99.16
46211;BME280;52144;48.040;-1.594;2023-02-21T04:05:52;101464.53;;;5.26;99.08
46211;BME280;52144;48.040;-1.594;2023-02-21T04:08:20;101454.03;;;5.20;99.11
46211;BME280;52144;48.040;-1.594;2023-02-21T04:10:48;101458.31;;;5.32;99.42
46211;BME280;52144;48.040;-1.594;2023-02-21T04:13:18;101460.00;;;5.36;99.49
46211;BME280;52144;48.040;-1.594;2023-02-21T04:15:47;101459.47;;;5.06;97.79
46211;BME280;52144;48.040;-1.594;2023-02-21T04:18:15;101459.44;;;5.09;98.40
46211;BME280;52144;48.040;-1.594;2023-02-21T04:20:43;101457.75;;;5.05;97.63
46211;BME280;52144;48.040;-1.594;2023-02-21T04:23:15;101452.53;;;4.99;97.58
46211;BME280;52144;48.040;-1.594;2023-02-21T04:25:44;101449.91;;;4.94;96.92
46211;BME280;52144;48.040;-1.594;2023-02-21T04:28:11;101455.06;;;5.07;99.06
46211;BME280;52144;48.040;-1.594;2023-02-21T04:30:39;101452.16;;;5.30;97.97
46211;BME280;52144;48.040;-1.594;2023-02-21T04:33:09;101449.53;;;5.27;97.37
46211;BME280;52144;48.040;-1.594;2023-02-21T04:35:36;101445.25;;;5.16;95.99
46211;BME280;52144;48.040;-1.594;2023-02-21T04:38:04;101448.91;;;5.08;97.54
46211;BME280;52144;48.040;-1.594;2023-02-21T04:40:32;101440.84;;;5.18;97.03
46211;BME280;52144;48.040;-1.594;2023-02-21T04:43:00;101440.00;;;5.15;96.89
46211;BME280;52144;48.040;-1.594;2023-02-21T04:45:27;101445.31;;;5.13;97.22
46211;BME280;52144;48.040;-1.594;2023-02-21T04:47:55;101443.69;;;5.01;97.15
46211;BME280;52144;48.040;-1.594;2023-02-21T04:50:24;101441.81;;;5.10;99.54
46211;BME280;52144;48.040;-1.594;2023-02-21T04:52:54;101440.97;;;5.09;97.31
46211;BME280;52144;48.040;-1.594;2023-02-21T04:55:21;101440.97;;;5.09;96.53
46211;BME280;52144;48.040;-1.594;2023-02-21T04:57:49;101439.28;;;5.02;97.05
46211;BME280;52144;48.040;-1.594;2023-02-21T05:00:17;101433.09;;;5.03;96.66
46211;BME280;52144;48.040;-1.594;2023-02-21T05:02:45;101424.22;;;5.09;97.92
46211;BME280;52144;48.040;-1.594;2023-02-21T05:05:13;101431.47;;;4.91;96.34
46211;BME280;52144;48.040;-1.594;2023-02-21T05:07:42;101426.13;;;4.97;98.24
46211;BME280;52144;48.040;-1.594;2023-02-21T05:10:11;101429.63;;;4.98;96.12
46211;BME280;52144;48.040;-1.594;2023-02-21T05:12:39;101421.78;;;4.92;96.83
46211;BME280;52144;48.040;-1.594;2023-02-21T05:15:07;101416.56;;;4.86;97.22
46211;BME280;52144;48.040;-1.594;2023-02-21T05:17:35;101421.84;;;4.86;96.20
46211;BME280;52144;48.040;-1.594;2023-02-21T05:20:04;101413.97;;;4.81;95.41
46211;BME280;52144;48.040;-1.594;2023-02-21T05:22:37;101410.56;;;4.70;94.80
46211;BME280;52144;48.040;-1.594;2023-02-21T05:25:13;101408.84;;;4.69;95.48
46211;BME280;52144;48.040;-1.594;2023-02-21T05:27:42;101401.78;;;4.71;95.70
46211;BME280;52144;48.040;-1.594;2023-02-21T05:30:11;101399.25;;;4.60;96.19
46211;BME280;52144;48.040;-1.594;2023-02-21T05:32:39;101397.53;;;4.54;97.07
46211;BME280;52144;48.040;-1.594;2023-02-21T05:35:08;101402.75;;;4.62;96.02
46211;BME280;52144;48.040;-1.594;2023-02-21T05:37:36;101399.25;;;4.60;95.91
46211;BME280;52144;48.040;-1.594;2023-02-21T05:40:04;101404.41;;;4.69;95.18
46211;BME280;52144;48.040;-1.594;2023-02-21T05:42:34;101397.38;;;4.70;96.65
46211;BME280;52144;48.040;-1.594;2023-02-21T05:45:02;101392.22;;;4.59;94.04
46211;BME280;52144;48.040;-1.594;2023-02-21T05:47:32;101409.03;;;4.50;92.83
46211;BME280;52144;48.040;-1.594;2023-02-21T05:50:01;101404.63;;;4.49;92.40
46211;BME280;52144;48.040;-1.594;2023-02-21T05:52:29;101406.50;;;4.36;92.23
46211;BME280;52144;48.040;-1.594;2023-02-21T05:54:57;101408.25;;;4.37;92.20
46211;BME280;52144;48.040;-1.594;2023-02-21T05:57:24;101407.38;;;4.38;92.62
46211;BME280;52144;48.040;-1.594;2023-02-21T05:59:54;101404.66;;;4.45;92.99
46211;BME280;52144;48.040;-1.594;2023-02-21T06:02:21;101407.25;;;4.51;92.78
46211;BME280;52144;48.040;-1.594;2023-02-21T06:04:49;101407.06;;;4.69;93.49
46211;BME280;52144;48.040;-1.594;2023-02-21T06:07:17;101401.06;;;4.52;93.00
46211;BME280;52144;48.040;-1.594;2023-02-21T06:09:45;101403.63;;;4.61;93.12
46211;BME280;52144;48.040;-1.594;2023-02-21T06:12:13;101400.19;;;4.53;92.95
46211;BME280;52144;48.040;-1.594;2023-02-21T06:14:40;101406.13;;;4.73;93.76
46211;BME280;52144;48.040;-1.594;2023-02-21T06:17:09;101395.72;;;4.61;92.43
46211;BME280;52144;48.040;-1.594;2023-02-21T06:19:37;101387.97;;;4.42;92.81
46211;BME280;52144;48.040;-1.594;2023-02-21T06:22:05;101380.91;;;4.46;93.74
46211;BME280;52144;48.040;-1.594;2023-02-21T06:24:32;101384.50;;;4.37;93.55
46211;BME280;52144;48.040;-1.594;2023-02-21T06:27:00;101383.44;;;4.54;94.59
46211;BME280;52144;48.040;-1.594;2023-02-21T06:29:28;101388.66;;;4.63;94.35
46211;BME280;52144;48.040;-1.594;2023-02-21T06:31:57;101387.84;;;4.55;93.66
46211;BME280;52144;48.040;-1.594;2023-02-21T06:34:27;101380.81;;;4.54;92.76
46211;BME280;52144;48.040;-1.594;2023-02-21T06:36:55;101381.72;;;4.53;91.87
46211;BME280;52144;48.040;-1.594;2023-02-21T06:39:22;101379.13;;;4.47;91.48
46211;BME280;52144;48.040;-1.594;2023-02-21T06:41:50;101375.66;;;4.41;91.62
46211;BME280;52144;48.040;-1.594;2023-02-21T06:44:18;101375.66;;;4.43;92.18
46211;BME280;52144;48.040;-1.594;2023-02-21T06:46:47;101373.66;;;4.63;93.25
46211;BME280;52144;48.040;-1.594;2023-02-21T06:49:16;101375.25;;;4.80;92.22
46211;BME280;52144;48.040;-1.594;2023-02-21T06:51:45;101381.31;;;4.88;92.57
46211;BME280;52144;48.040;-1.594;2023-02-21T06:54:13;101383.09;;;4.88;93.06
46211;BME280;52144;48.040;-1.594;2023-02-21T06:56:42;101383.00;;;4.97;92.60
46211;BME280;52144;48.040;-1.594;2023-02-21T06:59:10;101376.03;;;4.90;91.44
46211;BME280;52144;48.040;-1.594;2023-02-21T07:01:38;101374.44;;;4.73;92.01
46211;BME280;52144;48.040;-1.594;2023-02-21T07:04:06;101364.91;;;4.61;91.51
46211;BME280;52144;48.040;-1.594;2023-02-21T07:06:34;101368.66;;;4.40;91.68
46211;BME280;52144;48.040;-1.594;2023-02-21T07:09:04;101372.81;;;4.63;94.94
46211;BME280;52144;48.040;-1.594;2023-02-21T07:11:33;101376.09;;;4.83;94.49
46211;BME280;52144;48.040;-1.594;2023-02-21T07:14:01;101370.56;;;5.05;93.64
46211;BME280;52144;48.040;-1.594;2023-02-21T07:16:29;101377.56;;;5.08;92.98
46211;BME280;52144;48.040;-1.594;2023-02-21T07:18:57;101379.22;;;5.16;92.76
46211;BME280;52144;48.040;-1.594;2023-02-21T07:21:26;101381.16;;;5.02;91.66
46211;BME280;52144;48.040;-1.594;2023-02-21T07:23:53;101367.25;;;4.88;91.94
46211;BME280;52144;48.040;-1.594;2023-02-21T07:26:23;101367.16;;;4.97;92.94
46211;BME280;52144;48.040;-1.594;2023-02-21T07:28:50;101368.81;;;5.04;92.83
46211;BME280;52144;48.040;-1.594;2023-02-21T07:31:18;101376.72;;;5.02;91.96
46211;BME280;52144;48.040;-1.594;2023-02-21T07:33:47;101372.34;;;5.03;91.59
46211;BME280;52144;48.040;-1.594;2023-02-21T07:36:15;101371.09;;;5.32;92.94
46211;BME280;52144;48.040;-1.594;2023-02-21T07:38:43;101366.59;;;5.37;91.79
46211;BME280;52144;48.040;-1.594;2023-02-21T07:41:13;101375.63;;;5.20;91.15
46211;BME280;52144;48.040;-1.594;2023-02-21T07:43:43;101371.28;;;5.16;92.52
46211;BME280;52144;48.040;-1.594;2023-02-21T07:46:11;101370.34;;;5.20;92.10
46211;BME280;52144;48.040;-1.594;2023-02-21T07:48:39;101372.94;;;5.25;90.98
46211;BME280;52144;48.040;-1.594;2023-02-21T07:51:08;101371.13;;;5.29;90.10
46211;BME280;52144;48.040;-1.594;2023-02-21T07:53:36;101378.09;;;5.34;90.15
46211;BME280;52144;48.040;-1.594;2023-02-21T07:56:04;101373.66;;;5.38;90.95
46211;BME280;52144;48.040;-1.594;2023-02-21T07:58:32;101378.00;;;5.40;90.69
46211;BME280;52144;48.040;-1.594;2023-02-21T08:01:04;101368.63;;;5.19;89.44
46211;BME280;52144;48.040;-1.594;2023-02-21T08:03:32;101369.66;;;5.06;91.08
46211;BME280;52144;48.040;-1.594;2023-02-21T08:06:00;101368.56;;;5.22;91.77
46211;BME280;52144;48.040;-1.594;2023-02-21T08:08:28;101371.19;;;5.22;91.82
46211;BME280;52144;48.040;-1.594;2023-02-21T08:10:56;101364.97;;;5.27;91.75
46211;BME280;52144;48.040;-1.594;2023-02-21T08:13:24;101358.13;;;5.13;92.98
46211;BME280;52144;48.040;-1.594;2023-02-21T08:15:52;101356.38;;;5.12;92.61
46211;BME280;52144;48.040;-1.594;2023-02-21T08:18:22;101358.84;;;5.23;92.75
46211;BME280;52144;48.040;-1.594;2023-02-21T08:20:50;101355.94;;;5.45;93.42
46211;BME280;52144;48.040;-1.594;2023-02-21T08:23:19;101361.75;;;5.68;93.92
46211;BME280;52144;48.040;-1.594;2023-02-21T08:25:47;101350.09;;;5.80;92.70
46211;BME280;52144;48.040;-1.594;2023-02-21T08:28:16;101357.22;;;5.76;92.78
46211;BME280;52144;48.040;-1.594;2023-02-21T08:30:43;101360.06;;;5.64;93.93
46211;BME280;52144;48.040;-1.594;2023-02-21T08:33:11;101354.31;;;5.90;94.38
46211;BME280;52144;48.040;-1.594;2023-02-21T08:35:41;101350.75;;;5.96;93.85
46211;BME280;52144;48.040;-1.594;2023-02-21T08:38:08;101348.94;;;5.99;93.47
46211;BME280;52144;48.040;-1.594;2023-02-21T08:40:36;101354.09;;;6.09;92.83
46211;BME280;52144;48.040;-1.594;2023-02-21T08:43:04;101360.00;;;6.23;94.04
46211;BME280;52144;48.040;-1.594;2023-02-21T08:45:32;101354.94;;;6.11;93.56
46211;BME280;52144;48.040;-1.594;2023-02-21T08:48:00;101351.75;;;6.40;95.27
46211;BME280;52144;48.040;-1.594;2023-02-21T08:50:28;101345.88;;;6.69;94.34
46211;BME280;52144;48.040;-1.594;2023-02-21T08:52:57;101355.59;;;6.70;91.81
46211;BME280;52144;48.040;-1.594;2023-02-21T08:55:25;101358.75;;;6.89;94.13
46211;BME280;52144;48.040;-1.594;2023-02-21T08:57:53;101353.00;;;7.11;92.13
46211;BME280;52144;48.040;-1.594;2023-02-21T09:00:23;101354.88;;;7.04;91.07
46211;BME280;52144;48.040;-1.594;2023-02-21T09:02:54;101347.72;;;7.09;91.75
46211;BME280;52144;48.040;-1.594;2023-02-21T09:05:24;101346.63;;;7.19;91.85
46211;BME280;52144;48.040;-1.594;2023-02-21T09:07:54;101340.28;;;7.27;91.70
46211;BME280;52144;48.040;-1.594;2023-02-21T09:10:26;101351.38;;;7.44;91.76
46211;BME280;52144;48.040;-1.594;2023-02-21T09:12:55;101334.31;;;7.56;91.90
46211;BME280;52144;48.040;-1.594;2023-02-21T09:15:22;101338.31;;;7.74;91.94
46211;BME280;52144;48.040;-1.594;2023-02-21T09:17:51;101345.13;;;7.84;92.27
46211;BME280;52144;48.040;-1.594;2023-02-21T09:20:21;101337.69;;;8.00;91.45
46211;BME280;52144;48.040;-1.594;2023-02-21T09:22:50;101333.25;;;7.99;92.24
46211;BME280;52144;48.040;-1.594;2023-02-21T09:25:20;101330.28;;;8.11;92.14
46211;BME280;52144;48.040;-1.594;2023-02-21T09:27:51;101325.94;;;8.09;92.23
46211;BME280;52144;48.040;-1.594;2023-02-21T09:30:22;101326.84;;;8.08;94.19
46211;BME280;52144;48.040;-1.594;2023-02-21T09:32:52;101324.53;;;8.28;95.20
46211;BME280;52144;48.040;-1.594;2023-02-21T09:35:21;101326.59;;;8.18;93.88
46211;BME280;52144;48.040;-1.594;2023-02-21T09:37:48;101330.63;;;8.66;93.47
46211;BME280;52144;48.040;-1.594;2023-02-21T09:40:23;101324.16;;;9.06;92.37
46211;BME280;52144;48.040;-1.594;2023-02-21T09:42:57;101333.06;;;9.33;90.87
46211;BME280;52144;48.040;-1.594;2023-02-21T09:45:29;101328.72;;;9.31;91.45
46211;BME280;52144;48.040;-1.594;2023-02-21T09:47:58;101328.78;;;9.57;90.87
46211;BME280;52144;48.040;-1.594;2023-02-21T09:50:31;101311.69;;;9.64;90.98
46211;BME280;52144;48.040;-1.594;2023-02-21T09:53:01;101325.69;;;9.43;92.10
46211;BME280;52144;48.040;-1.594;2023-02-21T09:55:32;101322.59;;;9.57;92.30
46211;BME280;52144;48.040;-1.594;2023-02-21T09:58:09;101322.84;;;9.76;90.42
46211;BME280;52144;48.040;-1.594;2023-02-21T10:00:38;101315.81;;;10.01;91.21
46211;BME280;52144;48.040;-1.594;2023-02-21T10:03:37;101314.13;;;10.24;88.82
46211;BME280;52144;48.040;-1.594;2023-02-21T10:06:12;101315.69;;;10.31;88.48
46211;BME280;52144;48.040;-1.594;2023-02-21T10:08:48;101316.78;;;10.51;90.28
46211;BME280;52144;48.040;-1.594;2023-02-21T10:11:26;101316.00;;;10.47;89.73
46211;BME280;52144;48.040;-1.594;2023-02-21T10:14:05;101314.59;;;10.37;90.18
46211;BME280;52144;48.040;-1.594;2023-02-21T10:16:42;101309.25;;;10.62;89.14
46211;BME280;52144;48.040;-1.594;2023-02-21T10:19:16;101300.22;;;10.66;86.18
46211;BME280;52144;48.040;-1.594;2023-02-21T10:21:47;101307.41;;;10.64;84.47
46211;BME280;52144;48.040;-1.594;2023-02-21T10:24:19;101304.94;;;10.34;86.84
46211;BME280;52144;48.040;-1.594;2023-02-21T10:26:52;101312.38;;;10.23;90.42
46211;BME280;52144;48.040;-1.594;2023-02-21T10:29:34;101301.84;;;10.20;90.99
46211;BME280;52144;48.040;-1.594;2023-02-21T10:32:04;101299.16;;;10.47;93.17
46211;BME280;52144;48.040;-1.594;2023-02-21T10:34:33;101292.94;;;10.21;91.55
46211;BME280;52144;48.040;-1.594;2023-02-21T10:37:05;101297.44;;;10.69;91.25
46211;BME280;52144;48.040;-1.594;2023-02-21T10:39:42;101289.91;;;10.57;91.75
46211;BME280;52144;48.040;-1.594;2023-02-21T10:42:24;101280.03;;;10.09;95.11
46211;BME280;52144;48.040;-1.594;2023-02-21T10:44:54;101275.53;;;10.36;94.64
46211;BME280;52144;48.040;-1.594;2023-02-21T10:47:28;101280.78;;;10.39;94.14
46211;BME280;52144;48.040;-1.594;2023-02-21T10:50:01;101279.34;;;10.54;94.09
46211;BME280;52144;48.040;-1.594;2023-02-21T10:52:35;101277.31;;;10.37;94.25
46211;BME280;52144;48.040;-1.594;2023-02-21T10:55:05;101275.94;;;10.74;94.63
46211;BME280;52144;48.040;-1.594;2023-02-21T10:57:53;101269.44;;;11.04;93.24
46211;BME280;52144;48.040;-1.594;2023-02-21T11:00:27;101265.09;;;11.68;88.75
46211;BME280;52144;48.040;-1.594;2023-02-21T11:03:02;101262.63;;;11.63;90.31
46211;BME280;52144;48.040;-1.594;2023-02-21T11:05:34;101254.88;;;11.78;90.21
46211;BME280;52144;48.040;-1.594;2023-02-21T11:08:05;101258.47;;;11.34;92.51
46211;BME280;52144;48.040;-1.594;2023-02-21T11:10:35;101259.38;;;11.77;91.93
46211;BME280;52144;48.040;-1.594;2023-02-21T11:13:13;101267.06;;;12.07;87.98
46211;BME280;52144;48.040;-1.594;2023-02-21T11:15:44;101259.84;;;12.49;89.73
46211;BME280;52144;48.040;-1.594;2023-02-21T11:18:15;101255.66;;;12.82;84.54
46211;BME280;52144;48.040;-1.594;2023-02-21T11:20:43;101250.94;;;12.69;86.00
46211;BME280;52144;48.040;-1.594;2023-02-21T11:23:20;101247.81;;;12.59;88.60
46211;BME280;52144;48.040;-1.594;2023-02-21T11:25:52;101241.09;;;12.50;88.96
46211;BME280;52144;48.040;-1.594;2023-02-21T11:28:24;101242.16;;;12.46;88.02
46211;BME280;52144;48.040;-1.594;2023-02-21T11:31:07;101236.69;;;12.68;87.65
46211;BME280;52144;48.040;-1.594;2023-02-21T11:33:38;101227.50;;;12.15;90.06
46211;BME280;52144;48.040;-1.594;2023-02-21T11:36:10;101231.06;;;12.35;90.70
46211;BME280;52144;48.040;-1.594;2023-02-21T11:38:40;101229.53;;;12.29;89.84
46211;BME280;52144;48.040;-1.594;2023-02-21T11:41:18;101221.81;;;12.02;92.04
46211;BME280;52144;48.040;-1.594;2023-02-21T11:43:48;101217.25;;;12.25;93.22
46211;BME280;52144;48.040;-1.594;2023-02-21T11:46:24;101210.25;;;11.81;94.82
46211;BME280;52144;48.040;-1.594;2023-02-21T11:49:00;101204.38;;;12.14;95.31
46211;BME280;52144;48.040;-1.594;2023-02-21T11:51:35;101192.25;;;12.07;94.45
46211;BME280;52144;48.040;-1.594;2023-02-21T11:54:06;101203.59;;;12.52;92.39
46211;BME280;52144;48.040;-1.594;2023-02-21T11:56:43;101187.91;;;13.01;91.38
46211;BME280;52144;48.040;-1.594;2023-02-21T11:59:21;101183.56;;;12.41;93.13
46211;BME280;52144;48.040;-1.594;2023-02-21T12:02:01;101173.03;;;12.76;92.03
46211;BME280;52144;48.040;-1.594;2023-02-21T12:04:51;101164.41;;;12.70;94.52
46211;BME280;52144;48.040;-1.594;2023-02-21T12:07:29;101162.63;;;12.70;93.79
46211;BME280;52144;48.040;-1.594;2023-02-21T12:10:08;101156.78;;;12.62;94.70
46211;BME280;52144;48.040;-1.594;2023-02-21T12:12:52;101184.72;;;12.74;93.50
46211;BME280;52144;48.040;-1.594;2023-02-21T12:15:25;101195.97;;;13.37;90.66
46211;BME280;52144;48.040;-1.594;2023-02-21T12:18:09;101193.13;;;13.75;87.72
46211;BME280;52144;48.040;-1.594;2023-02-21T12:20:58;101192.66;;;13.84;87.32
46211;BME280;52144;48.040;-1.594;2023-02-21T12:23:38;101183.78;;;13.84;87.87
46211;BME280;52144;48.040;-1.594;2023-02-21T12:26:30;101181.22;;;13.98;85.69
46211;BME280;52144;48.040;-1.594;2023-02-21T12:29:08;101176.66;;;14.00;85.89
46211;BME280;52144;48.040;-1.594;2023-02-21T12:31:52;101164.84;;;13.87;84.92
46211;BME280;52144;48.040;-1.594;2023-02-21T12:34:37;101167.19;;;14.27;85.97
46211;BME280;52144;48.040;-1.594;2023-02-21T12:37:20;101158.03;;;14.64;83.88
46211;BME280;52144;48.040;-1.594;2023-02-21T12:39:59;101155.59;;;14.75;81.76
46211;BME280;52144;48.040;-1.594;2023-02-21T12:42:40;101143.72;;;15.11;81.43
46211;BME280;52144;48.040;-1.594;2023-02-21T12:45:21;101149.22;;;15.40;77.21
46211;BME280;52144;48.040;-1.594;2023-02-21T12:47:52;101138.38;;;15.11;82.22
46211;BME280;52144;48.040;-1.594;2023-02-21T12:50:26;101129.19;;;14.36;84.36
46211;BME280;52144;48.040;-1.594;2023-02-21T12:53:00;101125.34;;;14.57;86.16
46211;BME280;52144;48.040;-1.594;2023-02-21T12:55:32;101117.56;;;14.69;85.06
46211;BME280;52144;48.040;-1.594;2023-02-21T12:58:08;101124.31;;;14.27;86.97
46211;BME280;52144;48.040;-1.594;2023-02-21T13:00:42;101121.94;;;14.85;84.95
46211;BME280;52144;48.040;-1.594;2023-02-21T13:03:24;101127.16;;;14.57;84.55
46211;BME280;52144;48.040;-1.594;2023-02-21T13:06:01;101113.44;;;15.09;83.90
46211;BME280;52144;48.040;-1.594;2023-02-21T13:08:43;101115.34;;;15.07;82.37
46211;BME280;52144;48.040;-1.594;2023-02-21T13:11:19;101108.13;;;15.23;80.37
46211;BME280;52144;48.040;-1.594;2023-02-21T13:13:48;101108.19;;;15.22;79.43
46211;BME280;52144;48.040;-1.594;2023-02-21T13:16:16;101103.81;;;15.21;78.55
46211;BME280;52144;48.040;-1.594;2023-02-21T13:18:48;101097.72;;;14.71;82.97
46211;BME280;52144;48.040;-1.594;2023-02-21T13:21:50;101082.13;;;14.46;83.32
46211;BME280;52144;48.040;-1.594;2023-02-21T13:24:42;101085.94;;;14.90;83.47